sensor_id;sensor_type;location;lat;lon;timestamp;temperature;humidity
6244;DHT22;3155;49.940;8.450;2023-04-16T00:02:14;8.40;1.00
6244;DHT22;3155;49.940;8.450;2023-04-16T00:04:41;8.40;17.00
6244;DHT22;3155;49.940;8.450;2023-04-16T00:07:22;8.40;19.30
6244;DHT22;3155;49.940;8.450;2023-04-16T00:09:48;8.40;99.90
6244;DHT22;3155;49.940;8.450;2023-04-16T00:12:16;8.40;19.30
6244;DHT22;3155;49.940;8.450;2023-04-16T00:14:44;8.30;99.90
6244;DHT22;3155;49.940;8.450;2023-04-16T00:17:13;8.40;99.90
6244;DHT22;3155;49.940;8.450;2023-04-16T00:19:40;8.40;99.90
6244;DHT22;3155;49.940;8.450;2023-04-16T00:22:07;8.40;99.90
6244;DHT22;3155;49.940;8.450;2023-04-16T00:24:33;8.40;99.90
6244;DHT22;3155;49.940;8.450;2023-04-16T00:27:01;8.30;99.90
6244;DHT22;3155;49.940;8.450;2023-04-16T00:29:28;8.30;99.90
6244;DHT22;3155;49.940;8.450;2023-04-16T00:31:56;8.40;99.90
6244;DHT22;3155;49.940;8.450;2023-04-16T00:34:23;8.40;99.90
6244;DHT22;3155;49.940;8.450;2023-04-16T00:36:49;8.30;99.90
6244;DHT22;3155;49.940;8.450;2023-04-16T00:39:17;8.40;99.90
6244;DHT22;3155;49.940;8.450;2023-04-16T00:41:43;8.30;99.90
6244;DHT22;3155;49.940;8.450;2023-04-16T00:44:10;8.40;99.90
6244;DHT22;3155;49.940;8.450;2023-04-16T00:46:43;8.30;99.90
6244;DHT22;3155;49.940;8.450;2023-04-16T00:49:11;8.30;99.90
6244;DHT22;3155;49.940;8.450;2023-04-16T00:51:43;8.30;99.90
6244;DHT22;3155;49.940;8.450;2023-04-16T00:54:10;8.30;99.90
6244;DHT22;3155;49.940;8.450;2023-04-16T00:56:37;8.30;99.90
6244;DHT22;3155;49.940;8.450;2023-04-16T00:59:05;8.30;99.90
6244;DHT22;3155;49.940;8.450;2023-04-16T01:01:32;8.30;99.90
6244;DHT22;3155;49.940;8.450;2023-04-16T01:03:58;8.30;1.00
6244;DHT22;3155;49.940;8.450;2023-04-16T01:06:25;8.30;1.00
6244;DHT22;3155;49.940;8.450;2023-04-16T01:08:53;8.30;1.00
6244;DHT22;3155;49.940;8.450;2023-04-16T01:11:20;8.30;99.90
6244;DHT22;3155;49.940;8.450;2023-04-16T01:13:47;8.30;99.90
6244;DHT22;3155;49.940;8.450;2023-04-16T01:16:13;8.30;99.90
6244;DHT22;3155;49.940;8.450;2023-04-16T01:18:43;8.30;99.90
6244;DHT22;3155;49.940;8.450;2023-04-16T01:21:10;8.30;99.90
6244;DHT22;3155;49.940;8.450;2023-04-16T01:23:36;8.30;1.00
6244;DHT22;3155;49.940;8.450;2023-04-16T01:26:03;8.30;1.00
6244;DHT22;3155;49.940;8.450;2023-04-16T01:28:30;8.20;1.00
6244;DHT22;3155;49.940;8.450;2023-04-16T01:30:57;8.20;1.00
6244;DHT22;3155;49.940;8.450;2023-04-16T01:33:26;8.20;1.00
6244;DHT22;3155;49.940;8.450;2023-04-16T01:35:56;8.20;99.90
6244;DHT22;3155;49.940;8.450;2023-04-16T01:38:23;8.10;99.90
6244;DHT22;3155;49.940;8.450;2023-04-16T01:40:55;8.10;1.00
6244;DHT22;3155;49.940;8.450;2023-04-16T01:43:22;8.00;1.00
6244;DHT22;3155;49.940;8.450;2023-04-16T01:45:49;8.00;1.00
6244;DHT22;3155;49.940;8.450;2023-04-16T01:48:16;8.00;99.90
6244;DHT22;3155;49.940;8.450;2023-04-16T01:50:43;8.00;99.90
6244;DHT22;3155;49.940;8.450;2023-04-16T01:53:10;8.00;1.00
6244;DHT22;3155;49.940;8.450;2023-04-16T01:55:37;8.00;1.00
6244;DHT22;3155;49.940;8.450;2023-04-16T01:58:04;8.00;1.00
6244;DHT22;3155;49.940;8.450;2023-04-16T02:00:32;8.00;1.00
6244;DHT22;3155;49.940;8.450;2023-04-16T02:03:06;8.00;1.00
6244;DHT22;3155;49.940;8.450;2023-04-16T02:05:36;8.00;99.90
6244;DHT22;3155;49.940;8.450;2023-04-16T02:08:03;8.00;1.00
6244;DHT22;3155;49.940;8.450;2023-04-16T02:10:30;8.00;1.00
6244;DHT22;3155;49.940;8.450;2023-04-16T02:12:57;8.00;1.00
6244;DHT22;3155;49.940;8.450;2023-04-16T02:15:24;8.00;1.00
6244;DHT22;3155;49.940;8.450;2023-04-16T02:17:53;8.10;1.00
6244;DHT22;3155;49.940;8.450;2023-04-16T02:20:22;8.10;1.00
6244;DHT22;3155;49.940;8.450;2023-04-16T02:22:49;8.10;99.90
6244;DHT22;3155;49.940;8.450;2023-04-16T02:25:16;8.10;99.90
6244;DHT22;3155;49.940;8.450;2023-04-16T02:27:43;8.20;99.90
6244;DHT22;3155;49.940;8.450;2023-04-16T02:30:10;8.20;99.90
6244;DHT22;3155;49.940;8.450;2023-04-16T02:32:39;8.20;99.90
6244;DHT22;3155;49.940;8.450;2023-04-16T02:35:08;8.20;99.60
6244;DHT22;3155;49.940;8.450;2023-04-16T02:37:35;8.20;99.90
6244;DHT22;3155;49.940;8.450;2023-04-16T02:40:02;8.20;45.20
6244;DHT22;3155;49.940;8.450;2023-04-16T02:42:29;8.10;68.50
6244;DHT22;3155;49.940;8.450;2023-04-16T02:44:59;8.20;99.90
6244;DHT22;3155;49.940;8.450;2023-04-16T02:47:25;8.10;99.90
6244;DHT22;3155;49.940;8.450;2023-04-16T02:49:52;8.20;99.90
6244;DHT22;3155;49.940;8.450;2023-04-16T02:52:21;8.20;99.90
6244;DHT22;3155;49.940;8.450;2023-04-16T02:54:48;8.20;99.90
6244;DHT22;3155;49.940;8.450;2023-04-16T02:57:15;8.20;99.90
6244;DHT22;3155;49.940;8.450;2023-04-16T02:59:41;8.20;99.90
6244;DHT22;3155;49.940;8.450;2023-04-16T03:02:08;8.20;99.90
6244;DHT22;3155;49.940;8.450;2023-04-16T03:04:35;8.20;74.10
6244;DHT22;3155;49.940;8.450;2023-04-16T03:07:02;8.20;1.00
6244;DHT22;3155;49.940;8.450;2023-04-16T03:09:28;8.20;1.00
6244;DHT22;3155;49.940;8.450;2023-04-16T03:11:55;8.20;1.00
6244;DHT22;3155;49.940;8.450;2023-04-16T03:14:22;8.20;1.00
6244;DHT22;3155;49.940;8.450;2023-04-16T03:16:49;8.30;1.00
6244;DHT22;3155;49.940;8.450;2023-04-16T03:19:16;8.20;1.00
6244;DHT22;3155;49.940;8.450;2023-04-16T03:21:42;8.30;1.00
6244;DHT22;3155;49.940;8.450;2023-04-16T03:24:09;8.20;1.00
6244;DHT22;3155;49.940;8.450;2023-04-16T03:26:36;8.20;1.00
6244;DHT22;3155;49.940;8.450;2023-04-16T03:29:03;8.30;87.10
6244;DHT22;3155;49.940;8.450;2023-04-16T03:31:30;8.20;99.90
6244;DHT22;3155;49.940;8.450;2023-04-16T03:33:57;8.30;99.90
6244;DHT22;3155;49.940;8.450;2023-04-16T03:36:23;8.20;99.90
6244;DHT22;3155;49.940;8.450;2023-04-16T03:38:52;8.30;99.90
6244;DHT22;3155;49.940;8.450;2023-04-16T03:41:19;8.20;99.90
6244;DHT22;3155;49.940;8.450;2023-04-16T03:43:46;8.10;99.90
6244;DHT22;3155;49.940;8.450;2023-04-16T03:46:12;8.10;1.00
6244;DHT22;3155;49.940;8.450;2023-04-16T03:48:39;8.00;1.00
6244;DHT22;3155;49.940;8.450;2023-04-16T03:51:06;8.00;99.90
6244;DHT22;3155;49.940;8.450;2023-04-16T03:53:33;8.00;99.90
6244;DHT22;3155;49.940;8.450;2023-04-16T03:56:02;8.00;99.90
6244;DHT22;3155;49.940;8.450;2023-04-16T03:58:29;8.00;99.90
6244;DHT22;3155;49.940;8.450;2023-04-16T04:00:56;8.10;99.90
6244;DHT22;3155;49.940;8.450;2023-04-16T04:03:23;8.20;99.90
6244;DHT22;3155;49.940;8.450;2023-04-16T04:05:51;8.20;1.00
6244;DHT22;3155;49.940;8.450;2023-04-16T04:08:19;8.30;99.90
6244;DHT22;3155;49.940;8.450;2023-04-16T04:10:46;8.30;1.00
6244;DHT22;3155;49.940;8.450;2023-04-16T04:13:13;8.30;1.00
6244;DHT22;3155;49.940;8.450;2023-04-16T04:15:43;8.30;47.10
6244;DHT22;3155;49.940;8.450;2023-04-16T04:18:10;8.30;1.00
6244;DHT22;3155;49.940;8.450;2023-04-16T04:20:40;8.30;1.00
6244;DHT22;3155;49.940;8.450;2023-04-16T04:23:08;8.30;1.00
6244;DHT22;3155;49.940;8.450;2023-04-16T04:25:35;8.20;1.00
6244;DHT22;3155;49.940;8.450;2023-04-16T04:28:01;8.30;1.00
6244;DHT22;3155;49.940;8.450;2023-04-16T04:30:28;8.30;1.00
6244;DHT22;3155;49.940;8.450;2023-04-16T04:32:55;8.30;1.00
6244;DHT22;3155;49.940;8.450;2023-04-16T04:35:21;8.30;1.00
6244;DHT22;3155;49.940;8.450;2023-04-16T04:37:48;8.30;99.90
6244;DHT22;3155;49.940;8.450;2023-04-16T04:40:15;8.30;99.90
6244;DHT22;3155;49.940;8.450;2023-04-16T04:42:42;8.40;15.20
6244;DHT22;3155;49.940;8.450;2023-04-16T04:45:09;8.40;1.00
6244;DHT22;3155;49.940;8.450;2023-04-16T04:47:36;8.40;1.00
6244;DHT22;3155;49.940;8.450;2023-04-16T04:50:04;8.40;99.90
6244;DHT22;3155;49.940;8.450;2023-04-16T04:52:31;8.40;99.90
6244;DHT22;3155;49.940;8.450;2023-04-16T04:54:58;8.30;99.90
6244;DHT22;3155;49.940;8.450;2023-04-16T04:57:24;8.40;99.90
6244;DHT22;3155;49.940;8.450;2023-04-16T04:59:51;8.40;99.90
6244;DHT22;3155;49.940;8.450;2023-04-16T05:02:18;8.50;99.90
6244;DHT22;3155;49.940;8.450;2023-04-16T05:04:45;8.50;99.90
6244;DHT22;3155;49.940;8.450;2023-04-16T05:07:11;8.50;99.90
6244;DHT22;3155;49.940;8.450;2023-04-16T05:09:38;8.50;99.90
6244;DHT22;3155;49.940;8.450;2023-04-16T05:12:05;8.50;99.90
6244;DHT22;3155;49.940;8.450;2023-04-16T05:14:32;8.60;1.00
6244;DHT22;3155;49.940;8.450;2023-04-16T05:16:58;8.60;1.00
6244;DHT22;3155;49.940;8.450;2023-04-16T05:19:25;8.60;2.00
6244;DHT22;3155;49.940;8.450;2023-04-16T05:21:58;8.60;60.70
6244;DHT22;3155;49.940;8.450;2023-04-16T05:24:25;8.70;1.00
6244;DHT22;3155;49.940;8.450;2023-04-16T05:26:51;8.70;99.90
6244;DHT22;3155;49.940;8.450;2023-04-16T05:29:18;8.70;99.90
6244;DHT22;3155;49.940;8.450;2023-04-16T05:31:45;8.70;99.90
6244;DHT22;3155;49.940;8.450;2023-04-16T05:34:12;8.60;99.90
6244;DHT22;3155;49.940;8.450;2023-04-16T05:36:38;8.60;99.90
6244;DHT22;3155;49.940;8.450;2023-04-16T05:39:08;8.60;99.90
6244;DHT22;3155;49.940;8.450;2023-04-16T05:41:36;8.60;99.90
6244;DHT22;3155;49.940;8.450;2023-04-16T05:44:03;8.60;99.90
6244;DHT22;3155;49.940;8.450;2023-04-16T05:46:31;8.70;99.90
6244;DHT22;3155;49.940;8.450;2023-04-16T05:49:00;8.70;99.90
6244;DHT22;3155;49.940;8.450;2023-04-16T05:51:27;8.70;99.90
6244;DHT22;3155;49.940;8.450;2023-04-16T05:53:55;8.70;99.90
6244;DHT22;3155;49.940;8.450;2023-04-16T05:56:21;8.80;99.90
6244;DHT22;3155;49.940;8.450;2023-04-16T05:58:48;8.70;99.90
6244;DHT22;3155;49.940;8.450;2023-04-16T06:01:15;8.80;99.90
6244;DHT22;3155;49.940;8.450;2023-04-16T06:03:42;8.80;99.90
6244;DHT22;3155;49.940;8.450;2023-04-16T06:06:10;8.90;99.90
6244;DHT22;3155;49.940;8.450;2023-04-16T06:08:37;8.90;99.90
6244;DHT22;3155;49.940;8.450;2023-04-16T06:11:03;8.90;99.90
6244;DHT22;3155;49.940;8.450;2023-04-16T06:13:30;8.90;99.90
6244;DHT22;3155;49.940;8.450;2023-04-16T06:15:57;8.90;99.90
6244;DHT22;3155;49.940;8.450;2023-04-16T06:18:24;8.90;99.90
6244;DHT22;3155;49.940;8.450;2023-04-16T06:20:50;8.90;99.90
6244;DHT22;3155;49.940;8.450;2023-04-16T06:23:17;8.90;99.90
6244;DHT22;3155;49.940;8.450;2023-04-16T06:25:44;8.90;99.90
6244;DHT22;3155;49.940;8.450;2023-04-16T06:28:11;9.00;99.90
6244;DHT22;3155;49.940;8.450;2023-04-16T06:30:38;9.10;99.90
6244;DHT22;3155;49.940;8.450;2023-04-16T06:33:05;9.20;99.90
6244;DHT22;3155;49.940;8.450;2023-04-16T06:35:31;9.40;99.90
6244;DHT22;3155;49.940;8.450;2023-04-16T06:38:00;9.50;99.90
6244;DHT22;3155;49.940;8.450;2023-04-16T06:40:27;9.70;99.90
6244;DHT22;3155;49.940;8.450;2023-04-16T06:42:54;9.90;99.90
6244;DHT22;3155;49.940;8.450;2023-04-16T06:45:21;9.90;99.90
6244;DHT22;3155;49.940;8.450;2023-04-16T06:47:48;9.90;99.90
6244;DHT22;3155;49.940;8.450;2023-04-16T06:50:16;10.00;99.90
6244;DHT22;3155;49.940;8.450;2023-04-16T06:52:43;10.00;99.90
6244;DHT22;3155;49.940;8.450;2023-04-16T06:55:15;10.00;99.90
6244;DHT22;3155;49.940;8.450;2023-04-16T06:57:42;9.90;99.90
6244;DHT22;3155;49.940;8.450;2023-04-16T07:00:09;9.60;99.90
6244;DHT22;3155;49.940;8.450;2023-04-16T07:02:36;9.30;99.90
6244;DHT22;3155;49.940;8.450;2023-04-16T07:05:04;8.90;99.90
6244;DHT22;3155;49.940;8.450;2023-04-16T07:07:31;8.60;99.90
6244;DHT22;3155;49.940;8.450;2023-04-16T07:09:58;8.50;99.90
6244;DHT22;3155;49.940;8.450;2023-04-16T07:12:28;8.30;99.90
6244;DHT22;3155;49.940;8.450;2023-04-16T07:14:55;8.10;99.90
6244;DHT22;3155;49.940;8.450;2023-04-16T07:17:22;8.10;99.90
6244;DHT22;3155;49.940;8.450;2023-04-16T07:19:50;8.00;1.00
6244;DHT22;3155;49.940;8.450;2023-04-16T07:22:16;8.00;13.20
6244;DHT22;3155;49.940;8.450;2023-04-16T07:24:44;7.90;99.90
6244;DHT22;3155;49.940;8.450;2023-04-16T07:27:11;7.90;99.90
6244;DHT22;3155;49.940;8.450;2023-04-16T07:29:38;7.80;99.90
6244;DHT22;3155;49.940;8.450;2023-04-16T07:32:06;7.90;99.90
6244;DHT22;3155;49.940;8.450;2023-04-16T07:34:35;7.90;1.00
6244;DHT22;3155;49.940;8.450;2023-04-16T07:37:02;7.90;1.00
6244;DHT22;3155;49.940;8.450;2023-04-16T07:39:31;7.90;1.00
6244;DHT22;3155;49.940;8.450;2023-04-16T07:42:00;7.90;1.00
6244;DHT22;3155;49.940;8.450;2023-04-16T07:44:27;7.90;1.00
6244;DHT22;3155;49.940;8.450;2023-04-16T07:46:54;7.90;1.00
6244;DHT22;3155;49.940;8.450;2023-04-16T07:49:21;7.90;1.00
6244;DHT22;3155;49.940;8.450;2023-04-16T07:51:57;7.90;1.00
6244;DHT22;3155;49.940;8.450;2023-04-16T07:54:24;8.00;1.00
6244;DHT22;3155;49.940;8.450;2023-04-16T07:56:52;8.00;1.00
6244;DHT22;3155;49.940;8.450;2023-04-16T07:59:22;8.00;1.00
6244;DHT22;3155;49.940;8.450;2023-04-16T08:01:52;8.10;1.00
6244;DHT22;3155;49.940;8.450;2023-04-16T08:04:19;8.00;1.00
6244;DHT22;3155;49.940;8.450;2023-04-16T08:06:51;8.10;1.00
6244;DHT22;3155;49.940;8.450;2023-04-16T08:09:19;8.10;1.00
6244;DHT22;3155;49.940;8.450;2023-04-16T08:11:48;8.10;1.00
6244;DHT22;3155;49.940;8.450;2023-04-16T08:14:15;8.10;1.00
6244;DHT22;3155;49.940;8.450;2023-04-16T08:16:43;8.10;1.00
6244;DHT22;3155;49.940;8.450;2023-04-16T08:19:10;8.20;1.00
6244;DHT22;3155;49.940;8.450;2023-04-16T08:21:37;8.30;1.00
6244;DHT22;3155;49.940;8.450;2023-04-16T08:24:04;8.30;1.00
6244;DHT22;3155;49.940;8.450;2023-04-16T08:26:31;8.30;1.00
6244;DHT22;3155;49.940;8.450;2023-04-16T08:28:57;8.30;1.00
6244;DHT22;3155;49.940;8.450;2023-04-16T08:31:27;8.30;1.00
6244;DHT22;3155;49.940;8.450;2023-04-16T08:33:54;8.30;1.00
6244;DHT22;3155;49.940;8.450;2023-04-16T08:36:23;8.30;1.00
6244;DHT22;3155;49.940;8.450;2023-04-16T08:38:50;8.30;1.00
6244;DHT22;3155;49.940;8.450;2023-04-16T08:41:19;8.40;1.00
6244;DHT22;3155;49.940;8.450;2023-04-16T08:43:47;8.50;1.00
6244;DHT22;3155;49.940;8.450;2023-04-16T08:46:16;8.50;1.00
6244;DHT22;3155;49.940;8.450;2023-04-16T08:48:46;8.50;1.00
6244;DHT22;3155;49.940;8.450;2023-04-16T08:51:16;8.60;1.00
6244;DHT22;3155;49.940;8.450;2023-04-16T08:54:01;8.60;1.00
6244;DHT22;3155;49.940;8.450;2023-04-16T08:56:30;8.60;1.00
6244;DHT22;3155;49.940;8.450;2023-04-16T08:58:57;8.60;1.00
6244;DHT22;3155;49.940;8.450;2023-04-16T09:01:24;8.70;1.00
6244;DHT22;3155;49.940;8.450;2023-04-16T09:03:52;8.80;1.00
6244;DHT22;3155;49.940;8.450;2023-04-16T09:06:20;8.80;1.00
6244;DHT22;3155;49.940;8.450;2023-04-16T09:08:47;8.90;99.90
6244;DHT22;3155;49.940;8.450;2023-04-16T09:11:16;9.00;99.90
6244;DHT22;3155;49.940;8.450;2023-04-16T09:13:45;9.10;99.90
6244;DHT22;3155;49.940;8.450;2023-04-16T09:16:13;9.20;99.90
6244;DHT22;3155;49.940;8.450;2023-04-16T09:18:40;9.20;99.90
6244;DHT22;3155;49.940;8.450;2023-04-16T09:21:11;9.20;99.90
6244;DHT22;3155;49.940;8.450;2023-04-16T09:23:38;9.30;99.90
6244;DHT22;3155;49.940;8.450;2023-04-16T09:26:05;9.40;99.90
6244;DHT22;3155;49.940;8.450;2023-04-16T09:31:12;9.50;99.90
6244;DHT22;3155;49.940;8.450;2023-04-16T09:33:39;9.60;99.90
6244;DHT22;3155;49.940;8.450;2023-04-16T09:36:06;9.70;99.90
6244;DHT22;3155;49.940;8.450;2023-04-16T09:38:49;9.70;99.90
6244;DHT22;3155;49.940;8.450;2023-04-16T09:41:17;9.80;99.90
6244;DHT22;3155;49.940;8.450;2023-04-16T09:43:55;9.90;99.90
6244;DHT22;3155;49.940;8.450;2023-04-16T09:46:29;9.90;99.90
6244;DHT22;3155;49.940;8.450;2023-04-16T09:49:15;9.90;99.90
6244;DHT22;3155;49.940;8.450;2023-04-16T09:51:46;10.00;99.90
6244;DHT22;3155;49.940;8.450;2023-04-16T09:54:15;10.10;99.90
6244;DHT22;3155;49.940;8.450;2023-04-16T09:56:43;10.10;99.90
6244;DHT22;3155;49.940;8.450;2023-04-16T09:59:19;10.20;99.90
6244;DHT22;3155;49.940;8.450;2023-04-16T10:01:47;10.20;99.90
6244;DHT22;3155;49.940;8.450;2023-04-16T10:07:12;10.20;99.90
6244;DHT22;3155;49.940;8.450;2023-04-16T10:09:39;10.20;99.90
6244;DHT22;3155;49.940;8.450;2023-04-16T10:12:07;10.30;99.90
6244;DHT22;3155;49.940;8.450;2023-04-16T10:14:34;10.30;99.90
6244;DHT22;3155;49.940;8.450;2023-04-16T10:17:02;10.40;99.90
6244;DHT22;3155;49.940;8.450;2023-04-16T10:19:32;10.50;99.90
6244;DHT22;3155;49.940;8.450;2023-04-16T10:22:01;10.50;99.90
6244;DHT22;3155;49.940;8.450;2023-04-16T10:24:29;10.40;99.90
6244;DHT22;3155;49.940;8.450;2023-04-16T10:26:57;10.40;99.90
6244;DHT22;3155;49.940;8.450;2023-04-16T10:29:29;10.50;99.90
6244;DHT22;3155;49.940;8.450;2023-04-16T10:31:57;10.40;99.90
6244;DHT22;3155;49.940;8.450;2023-04-16T10:34:24;10.40;99.90
6244;DHT22;3155;49.940;8.450;2023-04-16T10:36:52;10.40;99.90
6244;DHT22;3155;49.940;8.450;2023-04-16T10:39:24;10.40;99.90
6244;DHT22;3155;49.940;8.450;2023-04-16T10:42:09;10.40;99.90
6244;DHT22;3155;49.940;8.450;2023-04-16T10:44:39;10.40;99.90
6244;DHT22;3155;49.940;8.450;2023-04-16T10:47:11;10.20;99.90
6244;DHT22;3155;49.940;8.450;2023-04-16T10:49:38;10.10;99.90
6244;DHT22;3155;49.940;8.450;2023-04-16T10:52:14;10.00;99.90
6244;DHT22;3155;49.940;8.450;2023-04-16T10:54:45;10.00;99.90
6244;DHT22;3155;49.940;8.450;2023-04-16T10:57:20;10.10;99.90
6244;DHT22;3155;49.940;8.450;2023-04-16T10:59:48;10.20;99.90
6244;DHT22;3155;49.940;8.450;2023-04-16T11:02:18;10.20;99.90
6244;DHT22;3155;49.940;8.450;2023-04-16T11:04:48;10.20;99.90
6244;DHT22;3155;49.940;8.450;2023-04-16T11:07:20;10.20;99.90
6244;DHT22;3155;49.940;8.450;2023-04-16T11:09:56;10.40;99.90
6244;DHT22;3155;49.940;8.450;2023-04-16T11:15:12;10.50;99.90
6244;DHT22;3155;49.940;8.450;2023-04-16T11:17:49;10.60;99.90
6244;DHT22;3155;49.940;8.450;2023-04-16T11:20:24;10.60;99.90
6244;DHT22;3155;49.940;8.450;2023-04-16T11:22:56;10.60;99.90
6244;DHT22;3155;49.940;8.450;2023-04-16T11:25:27;10.50;99.90
6244;DHT22;3155;49.940;8.450;2023-04-16T11:28:01;10.50;99.90
6244;DHT22;3155;49.940;8.450;2023-04-16T11:30:36;10.50;99.90
6244;DHT22;3155;49.940;8.450;2023-04-16T11:33:10;10.50;99.90
6244;DHT22;3155;49.940;8.450;2023-04-16T11:35:37;10.50;99.90
6244;DHT22;3155;49.940;8.450;2023-04-16T11:38:05;10.50;99.90
6244;DHT22;3155;49.940;8.450;2023-04-16T11:40:35;10.60;99.90
6244;DHT22;3155;49.940;8.450;2023-04-16T11:43:03;10.80;99.90
6244;DHT22;3155;49.940;8.450;2023-04-16T11:45:30;10.90;99.90
6244;DHT22;3155;49.940;8.450;2023-04-16T11:47:57;11.00;99.90
6244;DHT22;3155;49.940;8.450;2023-04-16T11:50:28;11.10;99.90
6244;DHT22;3155;49.940;8.450;2023-04-16T11:53:03;11.10;99.90
6244;DHT22;3155;49.940;8.450;2023-04-16T11:55:30;11.20;99.90
6244;DHT22;3155;49.940;8.450;2023-04-16T11:58:10;11.20;99.90
6244;DHT22;3155;49.940;8.450;2023-04-16T12:00:37;11.30;99.90
6244;DHT22;3155;49.940;8.450;2023-04-16T12:03:04;11.40;99.90
6244;DHT22;3155;49.940;8.450;2023-04-16T12:05:36;11.50;99.90
6244;DHT22;3155;49.940;8.450;2023-04-16T12:08:09;11.70;99.90
6244;DHT22;3155;49.940;8.450;2023-04-16T12:10:51;11.80;99.90
6244;DHT22;3155;49.940;8.450;2023-04-16T12:13:18;12.00;99.90
6244;DHT22;3155;49.940;8.450;2023-04-16T12:15:53;12.20;99.90
6244;DHT22;3155;49.940;8.450;2023-04-16T12:18:24;12.20;99.90
6244;DHT22;3155;49.940;8.450;2023-04-16T12:20:52;12.20;99.90
6244;DHT22;3155;49.940;8.450;2023-04-16T12:23:31;12.00;99.90
6244;DHT22;3155;49.940;8.450;2023-04-16T12:26:06;11.90;99.90
6244;DHT22;3155;49.940;8.450;2023-04-16T12:28:36;11.80;99.90
6244;DHT22;3155;49.940;8.450;2023-04-16T12:31:06;11.70;99.90
6244;DHT22;3155;49.940;8.450;2023-04-16T12:33:34;11.70;99.90
6244;DHT22;3155;49.940;8.450;2023-04-16T12:36:15;11.60;99.90
6244;DHT22;3155;49.940;8.450;2023-04-16T12:38:41;11.60;99.90
6244;DHT22;3155;49.940;8.450;2023-04-16T12:41:08;11.60;99.90
6244;DHT22;3155;49.940;8.450;2023-04-16T12:43:37;11.60;99.90
6244;DHT22;3155;49.940;8.450;2023-04-16T12:46:04;11.60;99.90
6244;DHT22;3155;49.940;8.450;2023-04-16T12:48:31;11.50;99.90
6244;DHT22;3155;49.940;8.450;2023-04-16T12:50:59;11.40;99.90
6244;DHT22;3155;49.940;8.450;2023-04-16T12:53:25;11.20;99.90
6244;DHT22;3155;49.940;8.450;2023-04-16T12:55:52;11.10;99.90
6244;DHT22;3155;49.940;8.450;2023-04-16T12:58:19;10.90;99.90
6244;DHT22;3155;49.940;8.450;2023-04-16T13:00:46;10.80;99.90
6244;DHT22;3155;49.940;8.450;2023-04-16T13:03:12;10.80;99.90
6244;DHT22;3155;49.940;8.450;2023-04-16T13:05:39;10.70;99.90
6244;DHT22;3155;49.940;8.450;2023-04-16T13:08:06;10.70;99.90
6244;DHT22;3155;49.940;8.450;2023-04-16T13:10:34;10.70;99.90
6244;DHT22;3155;49.940;8.450;2023-04-16T13:13:01;10.70;99.90
6244;DHT22;3155;49.940;8.450;2023-04-16T13:15:27;10.60;99.90
6244;DHT22;3155;49.940;8.450;2023-04-16T13:17:54;10.50;99.90
6244;DHT22;3155;49.940;8.450;2023-04-16T13:20:28;10.40;99.90
6244;DHT22;3155;49.940;8.450;2023-04-16T13:22:55;10.30;99.90
6244;DHT22;3155;49.940;8.450;2023-04-16T13:25:22;10.30;99.90
6244;DHT22;3155;49.940;8.450;2023-04-16T13:27:49;10.40;99.90
6244;DHT22;3155;49.940;8.450;2023-04-16T13:30:18;10.60;99.90
6244;DHT22;3155;49.940;8.450;2023-04-16T13:32:45;10.80;99.90
6244;DHT22;3155;49.940;8.450;2023-04-16T13:35:12;11.10;99.90
6244;DHT22;3155;49.940;8.450;2023-04-16T13:37:39;11.20;99.90
6244;DHT22;3155;49.940;8.450;2023-04-16T13:40:06;11.40;99.90
6244;DHT22;3155;49.940;8.450;2023-04-16T13:42:33;11.50;99.90
6244;DHT22;3155;49.940;8.450;2023-04-16T13:44:59;11.60;99.90
6244;DHT22;3155;49.940;8.450;2023-04-16T13:47:27;11.80;99.90
6244;DHT22;3155;49.940;8.450;2023-04-16T13:49:53;11.90;99.90
6244;DHT22;3155;49.940;8.450;2023-04-16T13:52:20;12.10;99.90
6244;DHT22;3155;49.940;8.450;2023-04-16T13:54:47;12.10;99.90
6244;DHT22;3155;49.940;8.450;2023-04-16T13:57:16;12.10;99.90
6244;DHT22;3155;49.940;8.450;2023-04-16T13:59:43;12.10;99.90
6244;DHT22;3155;49.940;8.450;2023-04-16T14:02:10;12.10;99.90
6244;DHT22;3155;49.940;8.450;2023-04-16T14:04:37;12.20;99.90
6244;DHT22;3155;49.940;8.450;2023-04-16T14:07:04;12.40;99.90
6244;DHT22;3155;49.940;8.450;2023-04-16T14:09:31;12.70;99.90
6244;DHT22;3155;49.940;8.450;2023-04-16T14:11:57;12.70;99.90
6244;DHT22;3155;49.940;8.450;2023-04-16T14:14:27;12.90;99.90
6244;DHT22;3155;49.940;8.450;2023-04-16T14:16:54;13.10;99.90
6244;DHT22;3155;49.940;8.450;2023-04-16T14:19:21;13.20;99.90
6244;DHT22;3155;49.940;8.450;2023-04-16T14:21:47;13.30;99.90
6244;DHT22;3155;49.940;8.450;2023-04-16T14:24:14;13.40;99.90
6244;DHT22;3155;49.940;8.450;2023-04-16T14:26:44;13.40;99.90
6244;DHT22;3155;49.940;8.450;2023-04-16T14:29:10;13.50;99.90
6244;DHT22;3155;49.940;8.450;2023-04-16T14:31:37;13.60;99.90
6244;DHT22;3155;49.940;8.450;2023-04-16T14:34:04;13.90;99.90
6244;DHT22;3155;49.940;8.450;2023-04-16T14:36:31;13.90;99.90
6244;DHT22;3155;49.940;8.450;2023-04-16T14:39:00;14.10;99.90
6244;DHT22;3155;49.940;8.450;2023-04-16T14:41:27;14.00;99.90
6244;DHT22;3155;49.940;8.450;2023-04-16T14:43:55;14.30;99.90
6244;DHT22;3155;49.940;8.450;2023-04-16T14:46:21;14.30;99.90
6244;DHT22;3155;49.940;8.450;2023-04-16T14:48:48;14.60;99.90
6244;DHT22;3155;49.940;8.450;2023-04-16T14:51:15;14.40;99.90
6244;DHT22;3155;49.940;8.450;2023-04-16T14:53:42;14.40;99.90
6244;DHT22;3155;49.940;8.450;2023-04-16T14:56:09;14.40;99.90
6244;DHT22;3155;49.940;8.450;2023-04-16T14:58:40;14.20;99.90
6244;DHT22;3155;49.940;8.450;2023-04-16T15:01:08;14.00;99.90
6244;DHT22;3155;49.940;8.450;2023-04-16T15:03:35;13.80;99.90
6244;DHT22;3155;49.940;8.450;2023-04-16T15:06:03;13.80;99.90
6244;DHT22;3155;49.940;8.450;2023-04-16T15:08:30;13.50;99.90
6244;DHT22;3155;49.940;8.450;2023-04-16T15:10:59;13.40;99.90
6244;DHT22;3155;49.940;8.450;2023-04-16T15:13:26;13.10;99.90
6244;DHT22;3155;49.940;8.450;2023-04-16T15:15:59;12.80;99.90
6244;DHT22;3155;49.940;8.450;2023-04-16T15:18:32;12.60;99.90
6244;DHT22;3155;49.940;8.450;2023-04-16T15:20:59;12.40;99.90
6244;DHT22;3155;49.940;8.450;2023-04-16T15:23:26;12.30;99.90
6244;DHT22;3155;49.940;8.450;2023-04-16T15:25:56;12.30;99.90
6244;DHT22;3155;49.940;8.450;2023-04-16T15:28:24;12.40;99.90
6244;DHT22;3155;49.940;8.450;2023-04-16T15:30:52;12.60;99.90
6244;DHT22;3155;49.940;8.450;2023-04-16T15:33:23;12.70;99.90
6244;DHT22;3155;49.940;8.450;2023-04-16T15:35:55;12.70;99.90
6244;DHT22;3155;49.940;8.450;2023-04-16T15:38:22;13.00;99.90
6244;DHT22;3155;49.940;8.450;2023-04-16T15:40:50;13.10;99.90
6244;DHT22;3155;49.940;8.450;2023-04-16T15:43:18;13.40;99.90
6244;DHT22;3155;49.940;8.450;2023-04-16T15:45:46;13.70;99.90
6244;DHT22;3155;49.940;8.450;2023-04-16T15:48:13;13.90;99.90
6244;DHT22;3155;49.940;8.450;2023-04-16T15:50:40;14.00;99.90
6244;DHT22;3155;49.940;8.450;2023-04-16T15:53:09;13.90;99.90
6244;DHT22;3155;49.940;8.450;2023-04-16T15:55:37;14.00;99.90
6244;DHT22;3155;49.940;8.450;2023-04-16T15:58:04;14.00;99.90
6244;DHT22;3155;49.940;8.450;2023-04-16T16:00:35;13.90;99.90
6244;DHT22;3155;49.940;8.450;2023-04-16T16:03:02;13.90;99.90
6244;DHT22;3155;49.940;8.450;2023-04-16T16:05:30;13.70;99.90
6244;DHT22;3155;49.940;8.450;2023-04-16T16:07:58;13.60;99.90
6244;DHT22;3155;49.940;8.450;2023-04-16T16:10:27;13.40;99.90
6244;DHT22;3155;49.940;8.450;2023-04-16T16:12:55;13.10;99.90
6244;DHT22;3155;49.940;8.450;2023-04-16T16:15:23;13.00;99.90
6244;DHT22;3155;49.940;8.450;2023-04-16T16:17:50;12.80;99.90
6244;DHT22;3155;49.940;8.450;2023-04-16T16:20:19;12.60;99.90
6244;DHT22;3155;49.940;8.450;2023-04-16T16:22:46;12.40;99.90
6244;DHT22;3155;49.940;8.450;2023-04-16T16:25:13;12.20;99.90
6244;DHT22;3155;49.940;8.450;2023-04-16T16:27:40;12.10;99.90
6244;DHT22;3155;49.940;8.450;2023-04-16T16:30:08;12.00;99.90